Time;durP1;ratioP1;P1;durP2;ratioP2;P2;SDS_P1;SDS_P2;PMS_P1;PMS_P2;Temp;Humidity;BMP_temperature;BMP_pressure;BME280_temperature;BME280_humidity;BME280_pressure;Samples;Min_cycle;Max_cycle;Signal;HPM_P1;HPM_P2
2022/12/27 00:01:16;;;;;;;;;;;;;;;8.67;100.00;98487.38;4237090;33;19938;-74
2022/12/27 00:03:42;;;;;;;;;;;;;;;8.43;100.00;98470.72;4238134;33;19997;-74
2022/12/27 00:06:10;;;;;;;;;;;;;;;8.49;100.00;98476.97;4238262;33;20206;-74
2022/12/27 00:08:36;;;;;;;;;;;;;;;8.84;100.00;98465.00;4238475;33;19957;-74
2022/12/27 00:11:03;;;;;;;;;;;;;;;8.65;100.00;98464.56;4249060;33;19991;-74
2022/12/27 00:13:30;;;;;;;;;;;;;;;8.69;100.00;98463.78;4242575;33;20020;-75
2022/12/27 00:16:01;;;;;;;;;;;;;;;8.77;100.00;98467.09;4240179;33;20379;-74
2022/12/27 00:18:27;;;;;;;;;;;;;;;8.73;100.00;98477.53;4241115;33;20316;-74
2022/12/27 00:21:00;;;;;;;;;;;;;;;8.79;100.00;98486.44;4248945;33;19950;-74
2022/12/27 00:23:29;;;;;;;;;;;;;;;8.64;100.00;98479.81;4251123;33;19937;-74
2022/12/27 00:26:03;;;;;;;;;;;;;;;8.95;100.00;98490.94;4252294;33;20000;-74
2022/12/27 00:28:30;;;;;;;;;;;;;;;8.57;100.00;98489.12;4252409;33;19942;-73
2022/12/27 00:30:56;;;;;;;;;;;;;;;8.61;100.00;98491.06;4250046;33;19956;-74
2022/12/27 00:33:23;;;;;;;;;;;;;;;8.50;100.00;98483.94;4267713;33;20300;-73
2022/12/27 00:35:49;;;;;;;;;;;;;;;8.59;100.00;98497.75;4272671;33;20363;-73
2022/12/27 00:38:15;;;;;;;;;;;;;;;8.72;100.00;98490.13;4274788;33;19956;-74
2022/12/27 00:40:42;;;;;;;;;;;;;;;8.41;100.00;98496.12;4264389;33;20309;-74
2022/12/27 00:43:08;;;;;;;;;;;;;;;8.19;100.00;98515.72;4264705;33;20354;-75
2022/12/27 00:45:34;;;;;;;;;;;;;;;8.39;100.00;98519.72;4281356;33;20710;-75
2022/12/27 00:48:00;;;;;;;;;;;;;;;8.60;100.00;98536.94;4281322;33;20068;-76
2022/12/27 00:50:26;;;;;;;;;;;;;;;8.43;100.00;98536.97;4282341;33;20319;-75
2022/12/27 00:52:53;;;;;;;;;;;;;;;8.40;100.00;98548.19;4280530;33;20447;-75
2022/12/27 00:55:19;;;;;;;;;;;;;;;8.34;100.00;98545.44;4253047;33;20405;-76
2022/12/27 00:57:45;;;;;;;;;;;;;;;7.80;100.00;98550.50;4266138;33;20299;-76
2022/12/27 03:03:23;;;;;;;;;;;;;;;5.92;100.00;98686.22;4299637;33;20269;-74
2022/12/27 03:06:38;;;;;;;;;;;;;;;5.77;100.00;98683.97;4304106;33;19996;-74
2022/12/27 03:08:59;;;;;;;;;;;;;;;5.55;100.00;98691.66;4295691;33;19971;-73
2022/12/27 03:17:07;;;;;;;;;;;;;;;5.00;100.00;98728.00;4309815;33;20305;-76
2022/12/27 03:25:26;;;;;;;;;;;;;;;5.01;100.00;98689.63;4309986;33;19945;-75
2022/12/27 03:33:30;;;;;;;;;;;;;;;4.86;100.00;98694.47;4283671;33;19946;-75
2022/12/27 03:39:02;;;;;;;;;;;;;;;4.68;100.00;98697.94;4283620;33;19949;-75
2022/12/27 03:44:23;;;;;;;;;;;;;;;4.68;100.00;98713.94;4286881;33;20248;-74
2022/12/27 03:47:02;;;;;;;;;;;;;;;4.73;100.00;98722.91;4312103;33;19991;-74
2022/12/27 03:49:35;;;;;;;;;;;;;;;4.79;100.00;98736.44;4309343;33;19990;-75
2022/12/27 03:52:01;;;;;;;;;;;;;;;4.63;100.00;98746.59;4292677;33;19945;-74
2022/12/27 03:54:35;;;;;;;;;;;;;;;4.52;100.00;98747.31;4267019;33;20353;-74
2022/12/27 03:57:04;;;;;;;;;;;;;;;4.61;100.00;98766.50;4265298;33;19949;-75
2022/12/27 03:59:30;;;;;;;;;;;;;;;4.59;100.00;98769.41;4263275;33;19962;-74
2022/12/27 04:01:57;;;;;;;;;;;;;;;4.63;100.00;98775.13;4251331;33;20035;-74
2022/12/27 04:04:23;;;;;;;;;;;;;;;4.43;100.00;98780.59;4251515;33;19956;-74
2022/12/27 04:06:50;;;;;;;;;;;;;;;4.36;100.00;98784.13;4250357;33;19981;-75
2022/12/27 04:36:51;;;;;;;;;;;;;;;4.26;100.00;98870.91;4284722;33;20002;-75
2022/12/27 04:39:18;;;;;;;;;;;;;;;4.24;100.00;98868.44;4298701;33;19952;-75
2022/12/27 04:55:54;;;;;;;;;;;;;;;4.11;100.00;98863.19;4282302;33;20418;-75
2022/12/27 04:58:21;;;;;;;;;;;;;;;4.11;100.00;98868.53;4289550;33;19952;-74
2022/12/27 05:03:33;;;;;;;;;;;;;;;3.93;100.00;98872.69;4300009;33;19948;-75
2022/12/27 05:05:59;;;;;;;;;;;;;;;3.85;100.00;98875.59;4299224;33;19953;-74
2022/12/27 05:13:58;;;;;;;;;;;;;;;4.11;100.00;98897.84;4310343;33;19963;-74
2022/12/27 05:16:25;;;;;;;;;;;;;;;4.09;100.00;98886.56;4280332;33;19941;-73
2022/12/27 05:18:52;;;;;;;;;;;;;;;4.31;100.00;98885.25;4266892;33;19972;-73
2022/12/27 05:21:18;;;;;;;;;;;;;;;4.11;100.00;98895.16;4268255;33;19983;-73
2022/12/27 05:26:31;;;;;;;;;;;;;;;3.60;100.00;98854.94;4267803;33;19993;-74
2022/12/27 05:28:57;;;;;;;;;;;;;;;4.06;100.00;98909.13;4268949;33;19949;-73
2022/12/27 05:31:25;;;;;;;;;;;;;;;4.14;100.00;98897.41;4267591;33;19994;-73
2022/12/27 05:33:51;;;;;;;;;;;;;;;4.19;100.00;98892.25;4267632;33;19941;-75
2022/12/27 05:36:18;;;;;;;;;;;;;;;4.01;100.00;98906.28;4253046;33;19949;-76
2022/12/27 05:41:18;;;;;;;;;;;;;;;3.96;100.00;98903.44;4240270;33;19942;-78
2022/12/27 05:43:44;;;;;;;;;;;;;;;3.58;100.00;98906.78;4237213;33;19956;-78
2022/12/27 05:46:11;;;;;;;;;;;;;;;3.89;100.00;98916.75;4240155;33;19964;-76
2022/12/27 05:48:38;;;;;;;;;;;;;;;3.78;100.00;98915.56;4254202;33;19946;-76
2022/12/27 05:51:05;;;;;;;;;;;;;;;3.74;100.00;98911.66;4253012;33;19958;-76
2022/12/27 05:53:31;;;;;;;;;;;;;;;3.71;100.00;98916.59;4264267;33;19965;-76
2022/12/27 05:55:58;;;;;;;;;;;;;;;3.59;100.00;98925.22;4268214;33;20007;-76
2022/12/27 05:58:24;;;;;;;;;;;;;;;3.58;100.00;98934.22;4267360;33;19967;-76
2022/12/27 06:00:50;;;;;;;;;;;;;;;3.51;100.00;98930.75;4254391;33;19988;-76
2022/12/27 06:03:16;;;;;;;;;;;;;;;3.60;100.00;98937.50;4253052;33;19955;-75
2022/12/27 06:05:43;;;;;;;;;;;;;;;3.96;100.00;98946.06;4252813;33;19964;-75
2022/12/27 06:08:09;;;;;;;;;;;;;;;3.73;100.00;98962.47;4266067;33;19942;-76
2022/12/27 06:10:36;;;;;;;;;;;;;;;3.58;100.00;98955.53;4268445;33;19946;-76
2022/12/27 06:13:02;;;;;;;;;;;;;;;3.94;100.00;98958.75;4274452;33;19941;-77
2022/12/27 06:15:28;;;;;;;;;;;;;;;3.93;100.00;98965.94;4269845;33;19961;-75
2022/12/27 06:17:55;;;;;;;;;;;;;;;3.73;100.00;98962.47;4294371;33;19948;-76
2022/12/27 06:20:21;;;;;;;;;;;;;;;3.63;100.00;98958.38;4295471;33;19959;-76
2022/12/27 06:22:47;;;;;;;;;;;;;;;3.71;100.00;98964.53;4294443;33;19947;-76
2022/12/27 06:25:14;;;;;;;;;;;;;;;3.68;100.00;98978.25;4294873;33;19979;-76
2022/12/27 06:27:40;;;;;;;;;;;;;;;3.74;100.00;98974.78;4292521;33;19988;-75
2022/12/27 06:30:07;;;;;;;;;;;;;;;3.85;100.00;98982.13;4282631;33;20687;-77
2022/12/27 06:32:34;;;;;;;;;;;;;;;3.54;100.00;98988.91;4257930;33;19945;-74
2022/12/27 06:35:00;;;;;;;;;;;;;;;3.62;100.00;98988.72;4266425;33;19981;-75
2022/12/27 06:37:26;;;;;;;;;;;;;;;4.08;100.00;98986.19;4266282;33;19976;-75
2022/12/27 06:39:52;;;;;;;;;;;;;;;3.84;100.00;99000.97;4265485;33;19951;-75
2022/12/27 06:42:18;;;;;;;;;;;;;;;3.84;100.00;99012.44;4267112;33;19968;-75
2022/12/27 06:44:45;;;;;;;;;;;;;;;3.94;100.00;99020.84;4265873;33;20076;-75
2022/12/27 06:47:11;;;;;;;;;;;;;;;4.20;100.00;99021.84;4266749;33;19948;-76
2022/12/27 06:49:38;;;;;;;;;;;;;;;4.05;100.00;99034.56;4257711;33;19954;-74
2022/12/27 06:52:04;;;;;;;;;;;;;;;4.16;100.00;99031.25;4251182;33;19945;-74
2022/12/27 06:54:30;;;;;;;;;;;;;;;3.93;100.00;99048.50;4256867;33;20296;-74
2022/12/27 06:56:56;;;;;;;;;;;;;;;3.85;100.00;99056.72;4253127;33;19950;-75
2022/12/27 06:59:23;;;;;;;;;;;;;;;3.75;100.00;99053.63;4254621;33;19981;-75
2022/12/27 07:01:49;;;;;;;;;;;;;;;3.95;100.00;99054.44;4274871;33;19963;-75
2022/12/27 07:04:15;;;;;;;;;;;;;;;3.87;100.00;99059.16;4296141;33;19963;-75
2022/12/27 07:06:41;;;;;;;;;;;;;;;4.25;100.00;99056.66;4299983;33;19949;-74
2022/12/27 07:09:08;;;;;;;;;;;;;;;4.18;100.00;99067.34;4300322;33;19945;-74
2022/12/27 07:11:34;;;;;;;;;;;;;;;3.95;100.00;99078.41;4298140;33;19976;-73
2022/12/27 07:14:01;;;;;;;;;;;;;;;4.13;100.00;99069.81;4294584;33;19996;-74
2022/12/27 07:16:28;;;;;;;;;;;;;;;3.96;100.00;99074.75;4298043;33;19961;-75
2022/12/27 07:18:55;;;;;;;;;;;;;;;4.24;100.00;99076.34;4298321;33;19964;-76
2022/12/27 07:21:22;;;;;;;;;;;;;;;4.04;100.00;99086.19;4298887;33;19967;-74
2022/12/27 07:23:49;;;;;;;;;;;;;;;3.79;100.00;99084.16;4312831;33;19982;-74
2022/12/27 07:26:17;;;;;;;;;;;;;;;4.15;100.00;99072.28;4297885;33;19972;-75
2022/12/27 07:28:43;;;;;;;;;;;;;;;4.05;100.00;99091.31;4296067;33;20208;-74
2022/12/27 07:31:17;;;;;;;;;;;;;;;4.25;100.00;99088.66;4297619;33;19954;-74
2022/12/27 07:33:44;;;;;;;;;;;;;;;4.23;100.00;99085.38;4295962;33;19949;-74
2022/12/27 07:36:28;;;;;;;;;;;;;;;3.62;100.00;99084.56;4280903;33;19969;-74
2022/12/27 07:38:54;;;;;;;;;;;;;;;4.08;100.00;99093.59;4283518;33;19949;-74
2022/12/27 07:41:21;;;;;;;;;;;;;;;4.29;100.00;99095.22;4259912;33;19985;-76
2022/12/27 07:43:47;;;;;;;;;;;;;;;3.96;100.00;99100.56;4265806;33;19952;-74
2022/12/27 07:46:14;;;;;;;;;;;;;;;4.22;100.00;99097.06;4253461;33;20005;-74
2022/12/27 07:48:42;;;;;;;;;;;;;;;4.15;100.00;99112.25;4261957;33;19941;-75
2022/12/27 07:51:08;;;;;;;;;;;;;;;3.82;100.00;99111.19;4264986;33;19962;-74
2022/12/27 07:53:34;;;;;;;;;;;;;;;4.03;100.00;99127.22;4258621;33;19960;-74
2022/12/27 07:56:04;;;;;;;;;;;;;;;4.26;100.00;99138.28;4251525;33;19989;-74
2022/12/27 07:58:34;;;;;;;;;;;;;;;4.03;100.00;99121.88;4264711;33;20754;-75
2022/12/27 08:01:01;;;;;;;;;;;;;;;4.06;100.00;99138.28;4265347;33;20230;-75
2022/12/27 08:03:28;;;;;;;;;;;;;;;4.12;100.00;99141.97;4252177;33;19950;-77
2022/12/27 08:05:54;;;;;;;;;;;;;;;4.07;100.00;99133.75;4263664;33;20281;-76
2022/12/27 08:08:22;;;;;;;;;;;;;;;4.21;100.00;99140.72;4264893;33;20132;-76
2022/12/27 08:10:48;;;;;;;;;;;;;;;4.10;100.00;99149.34;4252329;33;19950;-75
2022/12/27 08:13:14;;;;;;;;;;;;;;;4.15;100.00;99136.25;4273950;33;19956;-75
2022/12/27 08:15:41;;;;;;;;;;;;;;;4.40;100.00;99139.06;4266294;33;20116;-75
2022/12/27 08:18:08;;;;;;;;;;;;;;;4.28;100.00;99151.41;4262859;33;19941;-76
2022/12/27 08:20:34;;;;;;;;;;;;;;;4.06;100.00;99116.16;4258556;33;20071;-76
2022/12/27 08:23:07;;;;;;;;;;;;;;;4.13;100.00;99154.25;4241046;33;19950;-77
2022/12/27 08:25:33;;;;;;;;;;;;;;;4.35;100.00;99174.34;4238212;33;19949;-76
2022/12/27 08:28:06;;;;;;;;;;;;;;;3.87;100.00;99166.53;4235990;33;19953;-76
2022/12/27 08:30:33;;;;;;;;;;;;;;;4.32;100.00;99180.13;4238014;33;19947;-76
2022/12/27 08:33:00;;;;;;;;;;;;;;;4.42;100.00;99168.19;4238116;33;19938;-75
2022/12/27 08:35:26;;;;;;;;;;;;;;;4.01;100.00;99186.03;4235958;33;19950;-75
2022/12/27 08:37:52;;;;;;;;;;;;;;;3.68;100.00;99188.62;4220013;33;19984;-77
2022/12/27 08:40:19;;;;;;;;;;;;;;;3.83;100.00;99186.63;4224103;33;19995;-76
2022/12/27 08:42:45;;;;;;;;;;;;;;;3.81;100.00;99188.66;4223080;33;19942;-76
2022/12/27 08:45:11;;;;;;;;;;;;;;;4.09;100.00;99193.00;4222861;33;19939;-76
2022/12/27 08:47:38;;;;;;;;;;;;;;;3.67;100.00;99198.47;4221829;33;20333;-77
2022/12/27 08:50:06;;;;;;;;;;;;;;;3.96;100.00;99207.16;4220838;33;20310;-77
2022/12/27 08:52:32;;;;;;;;;;;;;;;3.87;100.00;99214.47;4215889;34;20395;-78
2022/12/27 08:54:58;;;;;;;;;;;;;;;4.00;100.00;99203.88;4245022;33;19942;-77
2022/12/27 08:57:25;;;;;;;;;;;;;;;3.64;100.00;99215.66;4249895;33;19952;-77
2022/12/27 08:59:51;;;;;;;;;;;;;;;4.20;100.00;99203.06;4247565;33;20115;-77
2022/12/27 09:02:17;;;;;;;;;;;;;;;3.73;100.00;99228.78;4251042;33;19985;-76
2022/12/27 09:04:43;;;;;;;;;;;;;;;3.64;100.00;99215.66;4251795;33;19964;-76
2022/12/27 09:07:17;;;;;;;;;;;;;;;3.91;100.00;99221.06;4252387;33;20007;-76
2022/12/27 09:09:43;;;;;;;;;;;;;;;4.21;100.00;99231.34;4273807;33;20325;-75
2022/12/27 09:12:16;;;;;;;;;;;;;;;3.70;100.00;99235.34;4298057;33;19972;-75
2022/12/27 09:14:42;;;;;;;;;;;;;;;4.23;100.00;99224.00;4294690;33;19946;-74
2022/12/27 09:17:09;;;;;;;;;;;;;;;4.18;100.00;99259.25;4296076;33;20359;-74
2022/12/27 09:19:35;;;;;;;;;;;;;;;4.07;100.00;99246.50;4295238;33;20314;-74
2022/12/27 09:22:04;;;;;;;;;;;;;;;3.80;100.00;99240.31;4295245;33;19957;-75
2022/12/27 09:24:30;;;;;;;;;;;;;;;3.54;100.00;99252.50;4297109;33;19945;-76
2022/12/27 09:26:58;;;;;;;;;;;;;;;3.74;100.00;99273.06;4274477;33;19955;-76
2022/12/27 09:29:25;;;;;;;;;;;;;;;3.82;100.00;99263.03;4272896;33;20039;-76
2022/12/27 09:31:51;;;;;;;;;;;;;;;3.73;100.00;99282.06;4277897;33;19949;-75
2022/12/27 09:34:18;;;;;;;;;;;;;;;4.03;100.00;99263.91;4264701;33;19954;-76
2022/12/27 09:36:46;;;;;;;;;;;;;;;4.06;100.00;99260.03;4253810;33;19948;-75
2022/12/27 09:39:12;;;;;;;;;;;;;;;3.99;100.00;99276.81;4241408;33;20323;-75
2022/12/27 09:41:48;;;;;;;;;;;;;;;3.94;100.00;99260.63;4240294;33;19987;-75
2022/12/27 09:44:14;;;;;;;;;;;;;;;3.73;100.00;99266.06;4236390;33;19981;-75
2022/12/27 09:46:57;;;;;;;;;;;;;;;3.68;100.00;99260.53;4237049;33;19954;-76
2022/12/27 09:49:30;;;;;;;;;;;;;;;3.87;100.00;99273.09;4236259;33;19946;-75
2022/12/27 09:52:00;;;;;;;;;;;;;;;3.28;100.00;99272.62;4237176;33;19954;-75
2022/12/27 09:54:41;;;;;;;;;;;;;;;3.67;100.00;99266.88;4236790;33;19942;-76
2022/12/27 09:57:14;;;;;;;;;;;;;;;4.00;100.00;99262.50;4237839;33;19964;-76
2022/12/27 09:59:42;;;;;;;;;;;;;;;3.89;100.00;99259.56;4250194;33;20331;-76
2022/12/27 10:02:23;;;;;;;;;;;;;;;4.27;100.00;99251.88;4253412;33;19960;-74
2022/12/27 10:04:52;;;;;;;;;;;;;;;4.11;100.00;99273.56;4262547;33;19996;-75
2022/12/27 10:07:35;;;;;;;;;;;;;;;3.63;100.00;99261.94;4262913;33;19964;-76
2022/12/27 10:10:04;;;;;;;;;;;;;;;3.72;100.00;99264.41;4274146;33;20008;-74
2022/12/27 10:12:33;;;;;;;;;;;;;;;3.71;100.00;99258.28;4282298;33;20032;-76
2022/12/27 10:15:20;;;;;;;;;;;;;;;3.58;100.00;99269.72;4292051;33;19967;-76
2022/12/27 10:18:09;;;;;;;;;;;;;;;3.44;100.00;99270.66;4289608;33;19948;-77
2022/12/27 10:20:52;;;;;;;;;;;;;;;3.52;100.00;99264.34;4308228;33;20321;-73
2022/12/27 10:23:23;;;;;;;;;;;;;;;3.56;100.00;99263.75;4299355;33;20097;-73
2022/12/27 10:25:52;;;;;;;;;;;;;;;3.54;100.00;99279.13;4269451;33;19992;-74
2022/12/27 10:28:24;;;;;;;;;;;;;;;3.68;100.00;99268.53;4274714;33;19956;-73
2022/12/27 10:30:51;;;;;;;;;;;;;;;3.77;100.00;99267.34;4276828;33;20004;-73
2022/12/27 10:33:19;;;;;;;;;;;;;;;3.70;100.00;99275.31;4274583;33;19959;-73
2022/12/27 10:35:46;;;;;;;;;;;;;;;3.69;100.00;99275.50;4273171;33;20330;-73
2022/12/27 10:38:13;;;;;;;;;;;;;;;3.37;100.00;99261.84;4250787;33;20404;-73
2022/12/27 10:40:51;;;;;;;;;;;;;;;3.71;100.00;99294.75;4253363;33;19951;-71
2022/12/27 10:43:21;;;;;;;;;;;;;;;3.83;100.00;99261.22;4252286;33;19956;-73
2022/12/27 10:45:47;;;;;;;;;;;;;;;3.78;100.00;99279.59;4249880;33;20012;-71
2022/12/27 10:48:28;;;;;;;;;;;;;;;3.77;100.00;99272.66;4250455;33;20058;-72
2022/12/27 10:50:57;;;;;;;;;;;;;;;3.87;100.00;99262.44;4221308;33;19947;-72
2022/12/27 10:53:29;;;;;;;;;;;;;;;3.74;100.00;99275.72;4222656;33;20367;-73
2022/12/27 10:56:05;;;;;;;;;;;;;;;3.80;100.00;99267.75;4222622;34;19980;-73
2022/12/27 10:58:36;;;;;;;;;;;;;;;3.73;100.00;99266.06;4225285;33;19993;-73
2022/12/27 11:01:03;;;;;;;;;;;;;;;3.62;100.00;99255.00;4222621;33;20330;-73
2022/12/27 11:03:31;;;;;;;;;;;;;;;3.70;100.00;99216.72;4224184;33;19946;-72
2022/12/27 11:06:04;;;;;;;;;;;;;;;4.02;100.00;99272.09;4222870;33;19946;-73
2022/12/27 11:08:31;;;;;;;;;;;;;;;4.12;100.00;99269.91;4228187;33;19962;-73
2022/12/27 11:11:16;;;;;;;;;;;;;;;3.88;100.00;99261.44;4251576;33;20237;-73
2022/12/27 11:13:42;;;;;;;;;;;;;;;3.88;100.00;99284.56;4238845;33;19960;-74
2022/12/27 11:16:22;;;;;;;;;;;;;;;4.36;100.00;99261.31;4235538;33;19952;-73
2022/12/27 11:18:51;;;;;;;;;;;;;;;4.07;100.00;99274.97;4233051;33;19954;-73
2022/12/27 11:21:17;;;;;;;;;;;;;;;4.33;100.00;99283.03;4238721;33;19946;-72
2022/12/27 11:23:45;;;;;;;;;;;;;;;3.90;100.00;99278.03;4266920;33;20043;-73
2022/12/27 11:26:20;;;;;;;;;;;;;;;3.87;100.00;99267.75;4239026;33;19938;-73
2022/12/27 11:28:51;;;;;;;;;;;;;;;4.25;100.00;99263.75;4240789;33;19962;-73
2022/12/27 11:31:19;;;;;;;;;;;;;;;4.09;100.00;99270.28;4250737;33;20091;-72
2022/12/27 11:33:53;;;;;;;;;;;;;;;4.13;100.00;99260.84;4247455;33;19942;-72
2022/12/27 11:36:25;;;;;;;;;;;;;;;4.23;100.00;99266.63;4245232;33;19947;-72
2022/12/27 11:38:52;;;;;;;;;;;;;;;4.39;100.00;99270.75;4232791;33;19972;-73
2022/12/27 11:41:24;;;;;;;;;;;;;;;4.12;100.00;99273.38;4233261;33;19938;-73
2022/12/27 11:43:57;;;;;;;;;;;;;;;4.52;100.00;99260.09;4232957;33;19938;-73
2022/12/27 11:46:27;;;;;;;;;;;;;;;4.17;100.00;99270.09;4238847;33;20444;-73
2022/12/27 11:48:56;;;;;;;;;;;;;;;4.57;100.00;99254.16;4232036;33;20056;-73
2022/12/27 11:51:37;;;;;;;;;;;;;;;4.41;100.00;99263.38;4231439;33;19988;-73
2022/12/27 11:54:20;;;;;;;;;;;;;;;3.82;100.00;99260.38;4196603;34;19947;-73
2022/12/27 11:56:59;;;;;;;;;;;;;;;3.94;100.00;99273.09;4197266;34;19943;-73
2022/12/27 11:59:48;;;;;;;;;;;;;;;3.78;100.00;99263.63;4196184;34;20343;-73
2022/12/27 12:02:24;;;;;;;;;;;;;;;3.88;100.00;99266.75;4356917;28;21434;-73
2022/12/27 12:05:13;;;;;;;;;;;;;;;3.84;100.00;99267.34;4235834;33;19971;-74
2022/12/27 12:07:39;;;;;;;;;;;;;;;4.04;100.00;99262.06;4237878;33;19981;-74
2022/12/27 12:10:08;;;;;;;;;;;;;;;4.21;100.00;99268.66;4252422;33;19946;-74
2022/12/27 12:12:43;;;;;;;;;;;;;;;4.17;100.00;99307.41;4266484;33;20024;-74
2022/12/27 12:15:32;;;;;;;;;;;;;;;4.20;100.00;99272.38;4253142;33;19946;-74
2022/12/27 12:18:17;;;;;;;;;;;;;;;4.10;100.00;99282.56;4260975;33;20049;-73
2022/12/27 12:20:56;;;;;;;;;;;;;;;4.28;100.00;99288.16;4265919;33;19963;-74
2022/12/27 12:23:40;;;;;;;;;;;;;;;4.20;100.00;99285.69;4250973;33;19952;-73
2022/12/27 12:26:07;;;;;;;;;;;;;;;4.18;100.00;99277.09;4281971;33;19949;-73
2022/12/27 12:28:35;;;;;;;;;;;;;;;4.22;100.00;99286.31;4296408;33;20003;-73
2022/12/27 12:31:05;;;;;;;;;;;;;;;4.15;100.00;99286.28;4296507;33;19949;-73
2022/12/27 12:33:56;;;;;;;;;;;;;;;4.07;100.00;99251.00;4293618;33;19953;-73
2022/12/27 12:36:23;;;;;;;;;;;;;;;4.32;100.00;99281.41;4295354;33;19960;-73
2022/12/27 12:38:55;;;;;;;;;;;;;;;4.18;100.00;99291.22;4293384;33;19963;-73
2022/12/27 12:41:42;;;;;;;;;;;;;;;4.35;100.00;99298.84;4293373;33;19945;-74
2022/12/27 12:44:22;;;;;;;;;;;;;;;4.02;100.00;99280.09;4271947;33;19944;-72
2022/12/27 12:47:06;;;;;;;;;;;;;;;4.36;100.00;99287.16;4263314;33;20435;-74
2022/12/27 12:49:49;;;;;;;;;;;;;;;4.37;100.00;99289.63;4237355;33;20027;-73
2022/12/27 12:52:34;;;;;;;;;;;;;;;4.25;100.00;99285.09;4237594;33;19990;-72
2022/12/27 12:55:03;;;;;;;;;;;;;;;4.10;100.00;99291.41;4237078;33;19947;-74
2022/12/27 12:57:47;;;;;;;;;;;;;;;4.17;100.00;99278.91;4236505;33;19958;-73
2022/12/27 13:00:28;;;;;;;;;;;;;;;4.37;100.00;99278.97;4238703;33;19980;-73
2022/12/27 13:03:01;;;;;;;;;;;;;;;4.02;100.00;99285.44;4237350;33;19965;-72
2022/12/27 13:05:50;;;;;;;;;;;;;;;4.53;100.00;99267.06;4233005;33;20355;-73
2022/12/27 13:08:19;;;;;;;;;;;;;;;4.56;100.00;99265.84;4232617;33;19954;-73
2022/12/27 13:11:11;;;;;;;;;;;;;;;4.30;100.00;99270.13;4226125;33;20332;-73
2022/12/27 13:13:57;;;;;;;;;;;;;;;4.36;100.00;99271.97;4251904;33;19985;-73
2022/12/27 13:16:43;;;;;;;;;;;;;;;4.39;100.00;99269.91;4237405;33;19948;-73
2022/12/27 13:19:31;;;;;;;;;;;;;;;4.28;100.00;99285.50;4231891;33;20091;-75
2022/12/27 13:22:15;;;;;;;;;;;;;;;4.26;100.00;99274.22;4262844;33;20070;-76
2022/12/27 13:25:04;;;;;;;;;;;;;;;4.22;100.00;99275.66;4283192;33;19955;-75
2022/12/27 13:27:34;;;;;;;;;;;;;;;4.12;100.00;99291.22;4293312;33;20002;-75
2022/12/27 13:30:13;;;;;;;;;;;;;;;4.09;100.00;99286.28;4294128;33;19969;-76
2022/12/27 13:32:52;;;;;;;;;;;;;;;4.32;100.00;99284.09;4294788;33;19951;-77
2022/12/27 13:35:41;;;;;;;;;;;;;;;4.16;100.00;99284.44;4277578;33;20374;-75
2022/12/27 13:38:19;;;;;;;;;;;;;;;4.30;100.00;99299.44;4278500;33;19951;-77
2022/12/27 13:41:05;;;;;;;;;;;;;;;4.55;100.00;99285.53;4277695;33;19959;-77
2022/12/27 13:43:41;;;;;;;;;;;;;;;4.13;100.00;99303.50;4250800;33;19941;-76
2022/12/27 13:46:07;;;;;;;;;;;;;;;4.28;100.00;99312.16;4234004;33;19963;-76
2022/12/27 13:48:39;;;;;;;;;;;;;;;4.54;100.00;99305.22;4241427;33;19960;-76
2022/12/27 13:51:22;;;;;;;;;;;;;;;4.45;100.00;99311.78;4245769;33;20718;-76
2022/12/27 13:54:01;;;;;;;;;;;;;;;4.52;100.00;99312.63;4245190;33;20003;-75
2022/12/27 13:56:27;;;;;;;;;;;;;;;4.34;100.00;99321.19;4250883;33;19973;-75
2022/12/27 13:59:09;;;;;;;;;;;;;;;4.36;100.00;99322.63;4250119;33;19968;-76
2022/12/27 14:02:02;;;;;;;;;;;;;;;3.87;100.00;99326.38;4246836;33;19950;-76
2022/12/27 14:04:41;;;;;;;;;;;;;;;4.14;100.00;99321.16;4238266;33;20384;-77
2022/12/27 14:07:30;;;;;;;;;;;;;;;4.34;100.00;99322.03;4249063;33;20317;-77
2022/12/27 14:10:03;;;;;;;;;;;;;;;4.27;100.00;99323.03;4249356;33;20021;-76
2022/12/27 14:12:52;;;;;;;;;;;;;;;4.35;100.00;99334.31;4249476;33;20042;-77
2022/12/27 14:15:21;;;;;;;;;;;;;;;4.31;100.00;99327.75;4264550;33;20055;-77
2022/12/27 14:17:54;;;;;;;;;;;;;;;4.55;100.00;99328.22;4273079;33;20302;-85
2022/12/27 14:20:38;;;;;;;;;;;;;;;4.15;100.00;99322.78;4271129;33;20259;-76
2022/12/27 14:23:22;;;;;;;;;;;;;;;4.47;100.00;99320.41;4269162;33;20294;-76
2022/12/27 14:26:08;;;;;;;;;;;;;;;4.42;100.00;99338.84;4271553;33;20039;-77
2022/12/27 14:28:49;;;;;;;;;;;;;;;4.69;100.00;99329.87;4273659;33;19963;-78
2022/12/27 14:31:28;;;;;;;;;;;;;;;4.52;100.00;99349.94;4274848;33;19959;-77
2022/12/27 14:34:00;;;;;;;;;;;;;;;4.46;100.00;99340.09;4279020;33;19945;-77
2022/12/27 14:36:29;;;;;;;;;;;;;;;4.49;100.00;99351.16;4274994;33;19955;-77
2022/12/27 14:39:10;;;;;;;;;;;;;;;4.42;100.00;99349.50;4277375;33;19954;-77
2022/12/27 14:41:52;;;;;;;;;;;;;;;4.59;100.00;99356.09;4279510;33;19955;-77
2022/12/27 14:44:18;;;;;;;;;;;;;;;4.27;100.00;99355.81;4280506;33;19971;-77
2022/12/27 14:46:56;;;;;;;;;;;;;;;4.43;100.00;99345.81;4277421;33;19975;-78
2022/12/27 14:49:37;;;;;;;;;;;;;;;4.49;100.00;99351.16;4273294;33;19973;-78
2022/12/27 14:52:09;;;;;;;;;;;;;;;4.55;100.00;99354.88;4278281;33;20138;-77
2022/12/27 14:54:54;;;;;;;;;;;;;;;4.17;100.00;99368.72;4276713;33;19960;-77
2022/12/27 14:57:28;;;;;;;;;;;;;;;4.30;100.00;99374.09;4281357;33;20011;-74
2022/12/27 15:00:03;;;;;;;;;;;;;;;4.31;100.00;99370.41;4275054;33;19975;-74
2022/12/27 15:02:50;;;;;;;;;;;;;;;4.33;100.00;99372.88;4269440;33;19959;-73
2022/12/27 15:05:25;;;;;;;;;;;;;;;4.14;100.00;99385.09;4273178;33;19945;-74
2022/12/27 15:08:10;;;;;;;;;;;;;;;4.17;100.00;99364.19;4277166;33;19945;-73
2022/12/27 15:10:39;;;;;;;;;;;;;;;4.36;100.00;99378.63;4279100;33;19959;-73
2022/12/27 15:13:24;;;;;;;;;;;;;;;4.34;100.00;99404.66;4280529;33;19941;-74
2022/12/27 15:16:03;;;;;;;;;;;;;;;4.34;100.00;99391.34;4281157;33;20362;-75
2022/12/27 15:18:41;;;;;;;;;;;;;;;4.42;100.00;99376.16;4278847;33;19941;-74
2022/12/27 15:21:16;;;;;;;;;;;;;;;4.54;100.00;99369.22;4280311;33;20022;-75
2022/12/27 15:23:53;;;;;;;;;;;;;;;4.54;100.00;99390.56;4279455;33;19952;-76
2022/12/27 15:26:19;;;;;;;;;;;;;;;4.48;100.00;99375.37;4276379;33;19984;-76
2022/12/27 15:28:51;;;;;;;;;;;;;;;4.34;100.00;99380.66;4276994;33;20030;-78
2022/12/27 15:31:17;;;;;;;;;;;;;;;4.24;100.00;99380.22;4280274;33;19951;-76
2022/12/27 15:33:43;;;;;;;;;;;;;;;4.43;100.00;99388.47;4286699;33;19968;-78
2022/12/27 15:36:15;;;;;;;;;;;;;;;4.27;100.00;99385.16;4291981;33;20103;-74
2022/12/27 15:38:43;;;;;;;;;;;;;;;4.59;100.00;99385.44;4291105;33;19969;-76
2022/12/27 15:41:25;;;;;;;;;;;;;;;4.57;100.00;99395.50;4299423;33;19953;-75
2022/12/27 15:44:13;;;;;;;;;;;;;;;4.35;100.00;99406.28;4303812;33;20252;-75
2022/12/27 15:46:59;;;;;;;;;;;;;;;4.28;100.00;99389.47;4299982;33;19997;-74
2022/12/27 15:49:44;;;;;;;;;;;;;;;4.39;100.00;99389.91;4296328;33;19965;-74
2022/12/27 15:52:19;;;;;;;;;;;;;;;4.48;100.00;99391.37;4307547;33;20386;-74
2022/12/27 15:54:45;;;;;;;;;;;;;;;4.41;100.00;99385.22;4300110;33;20305;-74
2022/12/27 15:57:30;;;;;;;;;;;;;;;4.10;100.00;99399.84;4296666;33;20000;-76
2022/12/27 16:00:15;;;;;;;;;;;;;;;3.95;100.00;99392.81;4276802;33;19981;-76
2022/12/27 16:02:42;;;;;;;;;;;;;;;4.25;100.00;99381.06;4277581;33;19953;-76
2022/12/27 16:05:11;;;;;;;;;;;;;;;4.07;100.00;99394.91;4275969;33;19998;-75
2022/12/27 16:07:40;;;;;;;;;;;;;;;4.41;100.00;99401.19;4248770;33;19972;-73
2022/12/27 16:10:25;;;;;;;;;;;;;;;4.23;100.00;99394.56;4249200;33;19950;-75
2022/12/27 16:12:53;;;;;;;;;;;;;;;4.06;100.00;99402.09;4238747;33;19988;-75
2022/12/27 16:15:39;;;;;;;;;;;;;;;4.17;100.00;99390.03;4240237;33;19946;-74
2022/12/27 16:18:18;;;;;;;;;;;;;;;4.39;100.00;99393.41;4241349;33;20055;-75
2022/12/27 16:21:05;;;;;;;;;;;;;;;4.35;100.00;99392.16;4249789;33;19985;-75
2022/12/27 16:23:36;;;;;;;;;;;;;;;4.43;100.00;99388.47;4249061;33;20394;-76
2022/12/27 16:26:02;;;;;;;;;;;;;;;4.50;100.00;99395.47;4251318;33;20384;-76
2022/12/27 16:28:29;;;;;;;;;;;;;;;4.18;100.00;99403.16;4247112;33;19988;-75
2022/12/27 16:30:59;;;;;;;;;;;;;;;4.23;100.00;99415.06;4255858;33;19956;-78
2022/12/27 16:33:26;;;;;;;;;;;;;;;4.14;100.00;99406.44;4261840;33;19990;-76